Time;durP1;ratioP1;P1;durP2;ratioP2;P2;SDS_P1;SDS_P2;PMS_P1;PMS_P2;Temp;Humidity;BMP_temperature;BMP_pressure;BME280_temperature;BME280_humidity;BME280_pressure;Samples;Min_cycle;Max_cycle;Signal;HPM_P1;HPM_P2
2020/12/21 00:00:01;;;;;;;37.22;12.40;;;5.00;99.90;;;;;;5053571;28;20045;-72
2020/12/21 00:02:38;;;;;;;36.08;12.25;;;5.00;99.90;;;;;;5064387;28;20048;-72
2020/12/21 00:05:05;;;;;;;42.92;13.90;;;5.00;99.90;;;;;;5062843;28;20037;-72
2020/12/21 00:07:32;;;;;;;40.28;13.07;;;5.00;99.90;;;;;;5065622;28;20790;-70
2020/12/21 00:09:59;;;;;;;37.20;12.98;;;5.00;99.90;;;;;;5065086;28;20044;-72
2020/12/21 00:12:26;;;;;;;43.30;14.07;;;4.90;99.90;;;;;;5059354;28;20048;-72
2020/12/21 00:14:52;;;;;;;40.60;13.43;;;5.00;99.90;;;;;;5061941;28;20052;-72
2020/12/21 00:17:21;;;;;;;40.80;14.23;;;4.90;99.90;;;;;;5064159;28;20049;-72
2020/12/21 00:19:54;;;;;;;39.95;12.65;;;4.90;99.90;;;;;;5068248;28;20048;-72
2020/12/21 00:22:21;;;;;;;42.28;12.63;;;4.90;99.90;;;;;;5068519;28;20044;-72
2020/12/21 00:24:47;;;;;;;44.40;13.73;;;4.90;99.90;;;;;;5063757;28;20038;-70
2020/12/21 00:27:13;;;;;;;44.85;14.45;;;4.90;99.90;;;;;;5045665;28;20048;-71
2020/12/21 00:29:41;;;;;;;49.55;15.18;;;4.90;99.90;;;;;;5055215;28;20048;-71
2020/12/21 00:32:08;;;;;;;38.25;13.27;;;4.90;99.90;;;;;;5066837;28;20054;-71
2020/12/21 00:34:34;;;;;;;40.33;13.57;;;4.90;99.90;;;;;;5046994;28;20098;-70
2020/12/21 00:37:01;;;;;;;37.67;12.80;;;4.90;99.90;;;;;;5048578;28;20541;-71
2020/12/21 00:39:27;;;;;;;39.50;12.80;;;4.90;99.90;;;;;;5057407;28;20052;-71
2020/12/21 00:41:53;;;;;;;43.85;14.07;;;4.90;99.90;;;;;;5066756;28;20059;-71
2020/12/21 00:44:20;;;;;;;45.75;15.05;;;4.90;99.90;;;;;;5059436;28;20041;-72
2020/12/21 00:46:46;;;;;;;46.00;14.20;;;4.90;99.90;;;;;;5058734;28;20044;-71
2020/12/21 00:49:13;;;;;;;37.40;12.40;;;4.80;99.90;;;;;;5039272;28;20048;-72
2020/12/21 00:51:41;;;;;;;37.40;13.68;;;4.90;99.90;;;;;;5066451;28;20067;-73
2020/12/21 00:54:08;;;;;;;41.65;14.82;;;4.80;99.90;;;;;;5070736;28;20480;-73
2020/12/21 00:56:34;;;;;;;45.58;14.00;;;4.90;99.90;;;;;;5061997;28;20052;-73
2020/12/21 00:59:01;;;;;;;43.13;14.07;;;4.90;99.90;;;;;;5065142;28;20044;-73
2020/12/21 01:01:29;;;;;;;44.42;14.10;;;4.90;99.90;;;;;;5058210;28;20079;-73
2020/12/21 01:04:01;;;;;;;40.35;13.80;;;4.90;99.90;;;;;;5052614;28;20549;-73
2020/12/21 01:06:30;;;;;;;44.85;13.60;;;4.90;99.90;;;;;;5067017;28;20044;-73
2020/12/21 01:08:58;;;;;;;43.35;14.70;;;4.80;99.90;;;;;;5070957;28;20146;-73
2020/12/21 01:11:30;;;;;;;38.63;13.35;;;4.90;99.90;;;;;;5051680;28;20036;-73
2020/12/21 01:13:57;;;;;;;46.72;13.85;;;4.80;99.90;;;;;;5058781;28;20052;-73
2020/12/21 01:16:24;;;;;;;44.55;12.68;;;4.90;99.90;;;;;;5071538;28;20474;-73
2020/12/21 01:18:51;;;;;;;36.75;12.95;;;4.80;99.90;;;;;;5071774;28;20486;-73
2020/12/21 01:21:23;;;;;;;43.60;13.82;;;4.80;99.90;;;;;;5044339;28;20532;-73
2020/12/21 01:23:50;;;;;;;39.90;13.73;;;4.90;99.90;;;;;;5053758;28;20044;-72
2020/12/21 01:26:17;;;;;;;43.65;14.07;;;4.90;99.90;;;;;;5070114;28;20033;-72
2020/12/21 01:28:44;;;;;;;42.33;14.00;;;4.90;99.90;;;;;;5057180;28;20067;-73
2020/12/21 01:31:11;;;;;;;45.45;13.40;;;4.90;99.90;;;;;;5059951;28;20466;-72
2020/12/21 01:33:37;;;;;;;43.00;14.45;;;4.90;99.90;;;;;;5056457;28;20056;-72
2020/12/21 01:36:04;;;;;;;42.97;13.65;;;4.80;99.90;;;;;;5060572;28;20046;-71
2020/12/21 01:38:31;;;;;;;41.95;14.00;;;4.80;99.90;;;;;;5053247;28;20520;-72
2020/12/21 01:40:57;;;;;;;46.67;14.60;;;4.90;99.90;;;;;;5063396;28;20480;-72
2020/12/21 01:43:24;;;;;;;48.55;16.02;;;4.90;99.90;;;;;;5067664;28;20054;-72
2020/12/21 01:45:50;;;;;;;44.78;14.15;;;4.80;99.90;;;;;;5054740;28;20431;-72
2020/12/21 01:48:17;;;;;;;41.22;13.90;;;4.90;99.90;;;;;;5058069;28;20033;-71
2020/12/21 01:50:44;;;;;;;48.65;13.93;;;4.90;99.90;;;;;;5050303;28;20055;-72
2020/12/21 01:53:10;;;;;;;38.33;13.38;;;4.90;99.90;;;;;;5059429;28;20049;-72
2020/12/21 01:55:40;;;;;;;38.85;13.05;;;4.80;99.90;;;;;;5072481;28;20044;-72
2020/12/21 01:58:07;;;;;;;38.42;12.73;;;4.80;99.90;;;;;;5062598;28;20057;-72
2020/12/21 02:00:34;;;;;;;40.30;13.60;;;4.80;99.90;;;;;;5062373;28;20041;-72
2020/12/21 02:03:01;;;;;;;41.00;13.52;;;4.90;99.90;;;;;;5053267;28;20040;-73
2020/12/21 02:05:28;;;;;;;47.08;14.35;;;4.90;99.90;;;;;;5060541;28;20044;-72
2020/12/21 02:07:54;;;;;;;43.63;13.15;;;4.90;99.90;;;;;;5052672;28;20033;-72
2020/12/21 02:10:21;;;;;;;39.72;12.70;;;4.80;99.90;;;;;;5067454;28;20506;-72
2020/12/21 02:12:48;;;;;;;42.80;12.77;;;4.80;99.90;;;;;;5063978;28;20044;-72
2020/12/21 02:15:15;;;;;;;40.50;12.30;;;4.80;99.90;;;;;;5080578;28;20041;-72
2020/12/21 02:17:41;;;;;;;41.25;13.10;;;4.80;99.90;;;;;;5069185;28;20385;-72
2020/12/21 02:20:07;;;;;;;40.28;13.60;;;4.80;99.90;;;;;;5072214;28;20037;-72
2020/12/21 02:22:34;;;;;;;48.45;14.90;;;4.90;99.90;;;;;;5068646;28;20041;-71
2020/12/21 02:25:00;;;;;;;37.42;12.23;;;4.90;99.90;;;;;;5069185;28;20737;-72
2020/12/21 02:27:28;;;;;;;43.38;13.65;;;4.80;99.90;;;;;;5055219;28;20448;-72
2020/12/21 02:29:54;;;;;;;42.33;14.60;;;4.90;99.90;;;;;;5054433;28;20503;-71
2020/12/21 02:32:21;;;;;;;39.53;11.77;;;4.90;99.90;;;;;;5067128;28;20407;-72
2020/12/21 02:34:52;;;;;;;39.17;11.80;;;4.80;99.90;;;;;;5052856;28;20045;-71
2020/12/21 02:37:19;;;;;;;40.53;12.88;;;4.80;99.90;;;;;;5069634;28;20048;-71
2020/12/21 02:39:45;;;;;;;40.70;14.25;;;4.80;99.90;;;;;;5067369;28;20468;-71
2020/12/21 02:42:12;;;;;;;41.28;12.20;;;4.80;99.90;;;;;;5073882;28;20040;-71
2020/12/21 02:44:39;;;;;;;44.13;12.65;;;4.80;99.90;;;;;;5072649;28;20033;-73
2020/12/21 02:47:05;;;;;;;47.65;13.80;;;4.80;99.90;;;;;;5063147;28;20049;-72
2020/12/21 02:49:32;;;;;;;41.80;12.98;;;4.80;99.90;;;;;;5060783;28;20047;-72
2020/12/21 02:51:58;;;;;;;38.58;11.98;;;4.70;99.90;;;;;;5068610;28;20060;-73
2020/12/21 02:54:25;;;;;;;38.50;12.82;;;4.80;99.90;;;;;;5068191;28;20049;-73
2020/12/21 02:56:55;;;;;;;45.38;13.25;;;4.80;99.90;;;;;;5035959;28;20052;-73
2020/12/21 02:59:22;;;;;;;41.70;13.38;;;4.80;99.90;;;;;;5065256;28;20048;-72
2020/12/21 03:01:48;;;;;;;39.78;13.13;;;4.70;99.90;;;;;;5068746;28;20040;-73
2020/12/21 03:04:15;;;;;;;37.00;11.77;;;4.80;99.90;;;;;;5069010;28;20044;-73
2020/12/21 03:06:42;;;;;;;42.60;12.95;;;4.70;99.90;;;;;;5051704;28;20064;-73
2020/12/21 03:09:08;;;;;;;39.58;12.68;;;4.80;99.90;;;;;;5055682;28;20033;-73
2020/12/21 03:11:35;;;;;;;38.20;12.40;;;4.80;99.90;;;;;;5084084;28;20098;-73
2020/12/21 03:14:01;;;;;;;50.85;15.27;;;4.80;99.90;;;;;;5069476;28;20044;-73
2020/12/21 03:16:28;;;;;;;42.58;13.35;;;4.70;99.90;;;;;;5064336;28;20055;-72
2020/12/21 03:18:55;;;;;;;41.85;14.38;;;4.80;99.90;;;;;;5071353;28;20123;-72
2020/12/21 03:21:21;;;;;;;40.67;13.77;;;4.80;99.90;;;;;;5069586;28;20056;-72
2020/12/21 03:23:48;;;;;;;39.65;12.60;;;4.70;99.90;;;;;;5059856;28;20361;-72
2020/12/21 03:26:14;;;;;;;42.78;12.40;;;4.70;99.90;;;;;;5062978;28;20044;-72
2020/12/21 03:28:41;;;;;;;47.33;13.82;;;4.70;99.90;;;;;;5053647;28;20720;-73
2020/12/21 03:31:08;;;;;;;46.22;13.73;;;4.70;99.90;;;;;;5065069;28;20045;-73
2020/12/21 03:33:34;;;;;;;40.38;13.32;;;4.80;99.90;;;;;;5047898;28;20503;-73
2020/12/21 03:36:01;;;;;;;43.10;12.45;;;4.80;99.90;;;;;;5050093;28;20051;-73
2020/12/21 03:38:28;;;;;;;49.15;15.25;;;4.80;99.90;;;;;;5064096;28;20071;-71
2020/12/21 03:40:55;;;;;;;44.03;12.63;;;4.80;99.90;;;;;;5053725;28;20044;-71
2020/12/21 03:43:22;;;;;;;45.10;14.15;;;4.70;99.90;;;;;;5058515;28;20045;-71
2020/12/21 03:45:49;;;;;;;40.97;13.32;;;4.70;99.90;;;;;;5063052;28;20041;-71
2020/12/21 03:48:16;;;;;;;44.88;14.82;;;4.70;99.90;;;;;;5057042;28;20491;-72
2020/12/21 03:50:43;;;;;;;41.03;13.65;;;4.70;99.90;;;;;;5065120;28;20055;-71
2020/12/21 03:53:10;;;;;;;41.75;12.63;;;4.70;99.90;;;;;;5065561;28;20045;-72
2020/12/21 03:55:37;;;;;;;50.25;12.60;;;4.70;99.90;;;;;;5062561;28;20064;-71
2020/12/21 03:58:05;;;;;;;45.80;13.32;;;4.70;99.90;;;;;;5067899;28;20056;-72
2020/12/21 04:00:32;;;;;;;40.63;13.60;;;4.70;99.90;;;;;;5064173;28;20508;-72
2020/12/21 04:02:59;;;;;;;42.67;13.15;;;4.70;99.90;;;;;;5058031;28;20277;-72
2020/12/21 04:05:42;;;;;;;45.85;13.40;;;4.70;99.90;;;;;;5057985;28;20040;-72
2020/12/21 04:08:09;;;;;;;45.53;13.00;;;4.70;99.90;;;;;;5060915;28;20037;-72
2020/12/21 04:10:37;;;;;;;43.40;13.20;;;4.70;99.90;;;;;;5062727;28;20120;-71
2020/12/21 04:13:04;;;;;;;45.33;12.90;;;4.70;99.90;;;;;;5068985;28;20060;-71
2020/12/21 04:15:30;;;;;;;42.60;12.80;;;4.70;99.90;;;;;;5071219;28;20110;-71
2020/12/21 04:17:57;;;;;;;42.92;13.50;;;4.70;99.90;;;;;;5065853;28;20052;-71
2020/12/21 04:20:24;;;;;;;45.15;13.98;;;4.70;99.90;;;;;;5063048;28;20060;-71
2020/12/21 04:22:50;;;;;;;41.50;12.57;;;4.70;99.90;;;;;;5063605;28;20049;-71
2020/12/21 04:25:17;;;;;;;44.05;13.60;;;4.70;99.90;;;;;;5055036;28;20041;-71
2020/12/21 04:27:43;;;;;;;41.00;12.57;;;4.70;99.90;;;;;;5063856;28;20041;-71
2020/12/21 04:30:10;;;;;;;40.97;12.15;;;4.70;99.90;;;;;;5069256;28;20048;-71
2020/12/21 04:32:36;;;;;;;50.03;13.43;;;4.70;99.90;;;;;;5072703;28;20542;-71
2020/12/21 04:35:04;;;;;;;43.13;13.60;;;4.70;99.90;;;;;;5066731;28;20037;-71
2020/12/21 04:37:33;;;;;;;41.97;12.38;;;4.70;99.90;;;;;;5039967;28;20037;-72
2020/12/21 04:39:59;;;;;;;45.58;13.07;;;4.70;99.90;;;;;;5065090;28;20411;-71
2020/12/21 04:42:26;;;;;;;44.35;13.20;;;4.70;99.90;;;;;;5070540;28;20434;-71
2020/12/21 04:44:53;;;;;;;39.58;12.07;;;4.70;99.90;;;;;;5065082;28;20047;-71
2020/12/21 04:47:20;;;;;;;33.13;10.27;;;4.70;99.90;;;;;;5060635;28;20053;-71
2020/12/21 04:49:47;;;;;;;41.90;12.40;;;4.70;99.90;;;;;;5070545;28;20048;-72
2020/12/21 04:52:14;;;;;;;40.25;11.30;;;4.70;99.90;;;;;;5069370;28;20055;-72
2020/12/21 04:54:42;;;;;;;40.88;13.18;;;4.70;99.90;;;;;;5059809;28;20041;-72
2020/12/21 04:57:09;;;;;;;40.70;12.23;;;4.70;99.90;;;;;;5069701;28;20377;-72
2020/12/21 04:59:36;;;;;;;41.30;12.75;;;4.70;99.90;;;;;;5066407;28;20047;-71
2020/12/21 05:02:05;;;;;;;40.45;12.05;;;4.70;99.90;;;;;;5069365;28;20051;-70
2020/12/21 05:04:32;;;;;;;40.33;12.02;;;4.70;99.90;;;;;;5065194;28;20044;-71
2020/12/21 05:06:58;;;;;;;41.85;12.50;;;4.60;99.90;;;;;;5050085;28;20702;-71
2020/12/21 05:09:26;;;;;;;39.70;12.30;;;4.70;99.90;;;;;;5069222;28;20484;-71
2020/12/21 05:11:57;;;;;;;38.63;11.65;;;4.70;99.90;;;;;;5056031;28;20510;-71
2020/12/21 05:14:32;;;;;;;38.10;11.25;;;4.60;99.90;;;;;;5057847;28;20037;-72
2020/12/21 05:17:16;;;;;;;35.15;12.00;;;4.70;99.90;;;;;;5066158;28;20454;-72
2020/12/21 05:19:44;;;;;;;41.50;12.25;;;4.70;99.90;;;;;;5050583;28;20041;-72
2020/12/21 05:22:14;;;;;;;43.22;12.80;;;4.70;99.90;;;;;;5066139;28;20070;-72
2020/12/21 05:24:43;;;;;;;45.53;13.93;;;4.70;99.90;;;;;;5062374;28;20043;-71
2020/12/21 05:27:18;;;;;;;37.17;11.65;;;4.70;99.90;;;;;;5057623;28;20082;-71
2020/12/21 05:29:54;;;;;;;36.83;11.15;;;4.70;99.90;;;;;;5060969;28;20045;-71
2020/12/21 05:32:22;;;;;;;40.53;12.05;;;4.70;99.90;;;;;;5053160;28;20047;-71
2020/12/21 05:34:49;;;;;;;36.60;11.48;;;4.70;99.90;;;;;;5052578;28;20066;-71
2020/12/21 05:37:21;;;;;;;39.75;11.50;;;4.70;99.90;;;;;;5067415;28;20694;-72
2020/12/21 05:39:55;;;;;;;39.05;12.15;;;4.70;99.90;;;;;;5054033;28;20048;-72
2020/12/21 05:42:23;;;;;;;39.47;10.85;;;4.70;99.90;;;;;;5057187;28;20044;-71
2020/12/21 05:45:01;;;;;;;38.20;11.43;;;4.70;99.90;;;;;;5070842;28;20525;-72
2020/12/21 05:47:29;;;;;;;36.30;12.50;;;4.60;99.90;;;;;;5071250;28;20538;-71
2020/12/21 05:50:06;;;;;;;36.75;11.35;;;4.70;99.90;;;;;;5064097;28;20049;-71
2020/12/21 05:52:37;;;;;;;41.20;12.27;;;4.70;99.90;;;;;;5068771;28;20064;-71
2020/12/21 05:55:10;;;;;;;38.40;10.85;;;4.70;99.90;;;;;;5071165;28;20528;-71
2020/12/21 05:57:40;;;;;;;37.17;11.80;;;4.60;99.90;;;;;;5056805;28;20055;-71
2020/12/21 06:00:09;;;;;;;37.00;11.13;;;4.60;99.90;;;;;;5072540;28;20032;-72
2020/12/21 06:02:36;;;;;;;41.15;11.32;;;4.70;99.90;;;;;;5061029;28;20037;-72
2020/12/21 06:05:11;;;;;;;32.70;11.40;;;4.70;99.90;;;;;;5049781;28;20074;-72
2020/12/21 06:07:48;;;;;;;40.35;11.85;;;4.70;99.90;;;;;;5073313;28;20250;-72
2020/12/21 06:10:15;;;;;;;36.65;11.98;;;4.70;99.90;;;;;;5074794;28;20040;-72
2020/12/21 06:12:50;;;;;;;44.13;12.48;;;4.70;99.90;;;;;;5063473;28;20060;-72
2020/12/21 06:15:22;;;;;;;40.60;12.05;;;4.70;99.90;;;;;;5070395;28;20445;-71
2020/12/21 06:17:49;;;;;;;34.85;12.10;;;4.70;99.90;;;;;;5053563;28;20056;-72
2020/12/21 06:20:20;;;;;;;37.70;11.73;;;4.70;99.90;;;;;;5062634;28;20052;-71
2020/12/21 06:22:47;;;;;;;40.97;12.23;;;4.70;99.90;;;;;;5065334;28;20054;-71
2020/12/21 06:25:24;;;;;;;41.90;11.98;;;4.80;99.90;;;;;;5060455;28;20047;-72
2020/12/21 06:27:51;;;;;;;35.80;11.55;;;4.80;99.90;;;;;;5060305;28;20040;-72
2020/12/21 06:30:29;;;;;;;42.78;11.02;;;4.70;99.90;;;;;;5068450;28;20076;-73
2020/12/21 06:33:03;;;;;;;42.83;11.23;;;4.80;99.90;;;;;;5054463;28;20041;-72
2020/12/21 06:35:41;;;;;;;36.72;12.20;;;4.80;99.90;;;;;;5063636;28;20376;-71
2020/12/21 06:38:08;;;;;;;38.58;12.55;;;4.70;99.90;;;;;;5070729;28;20036;-72
2020/12/21 06:40:35;;;;;;;39.05;12.77;;;4.70;99.90;;;;;;5061816;28;20387;-72
2020/12/21 06:43:09;;;;;;;41.97;13.60;;;4.80;99.90;;;;;;5069200;28;20048;-71
2020/12/21 06:45:36;;;;;;;40.38;12.43;;;4.80;99.90;;;;;;5051366;28;20820;-72
2020/12/21 06:48:03;;;;;;;43.17;14.27;;;4.80;99.90;;;;;;5062520;28;20099;-72
2020/12/21 06:50:30;;;;;;;43.72;13.27;;;4.70;99.90;;;;;;5060194;28;20124;-73
2020/12/21 06:52:56;;;;;;;43.00;11.75;;;4.80;99.90;;;;;;5063472;28;20048;-73
2020/12/21 06:55:33;;;;;;;34.15;11.65;;;4.80;99.90;;;;;;5061368;28;20488;-72
2020/12/21 06:57:59;;;;;;;37.97;11.90;;;4.80;99.90;;;;;;5068999;28;20059;-72
2020/12/21 07:00:26;;;;;;;42.10;13.32;;;4.80;99.90;;;;;;5071183;28;20039;-72
2020/12/21 07:02:54;;;;;;;42.78;12.52;;;4.80;99.90;;;;;;5054576;28;20045;-72
2020/12/21 07:05:21;;;;;;;36.85;12.48;;;4.80;99.90;;;;;;5066792;28;20059;-72
2020/12/21 07:08:00;;;;;;;37.42;11.82;;;4.80;99.90;;;;;;5058875;28;20055;-72
2020/12/21 07:10:31;;;;;;;40.17;11.52;;;4.80;99.90;;;;;;5057322;28;20383;-73
2020/12/21 07:12:58;;;;;;;50.03;14.02;;;4.80;99.90;;;;;;5069037;28;20043;-72
2020/12/21 07:15:25;;;;;;;67.88;19.65;;;4.80;99.90;;;;;;5064497;28;20399;-72
2020/12/21 07:17:54;;;;;;;51.83;16.02;;;4.80;99.90;;;;;;5054529;28;20048;-72
2020/12/21 07:20:21;;;;;;;45.92;13.63;;;4.80;99.90;;;;;;5063438;28;20057;-71
2020/12/21 07:22:48;;;;;;;36.70;12.13;;;4.70;99.90;;;;;;5071238;28;20048;-72
2020/12/21 07:25:15;;;;;;;41.65;13.65;;;4.80;99.90;;;;;;5047190;28;20044;-71
2020/12/21 07:27:46;;;;;;;40.05;12.32;;;4.80;99.90;;;;;;5069050;28;20044;-72
2020/12/21 07:30:14;;;;;;;40.22;13.10;;;4.90;99.90;;;;;;5064135;28;20398;-72
2020/12/21 07:32:41;;;;;;;38.97;11.98;;;4.90;99.90;;;;;;5065403;28;20033;-71
2020/12/21 07:35:07;;;;;;;41.42;12.85;;;4.90;99.90;;;;;;5071553;28;20036;-72
2020/12/21 07:37:34;;;;;;;44.50;13.40;;;4.90;99.90;;;;;;5070238;28;20094;-72
2020/12/21 07:40:00;;;;;;;38.88;12.82;;;5.00;99.90;;;;;;5052027;28;20060;-72
2020/12/21 07:42:30;;;;;;;39.10;11.80;;;5.00;99.90;;;;;;5068417;28;20807;-72
2020/12/21 07:44:59;;;;;;;42.28;11.45;;;5.00;99.90;;;;;;5054299;28;20045;-72
2020/12/21 07:47:32;;;;;;;42.67;12.57;;;5.00;99.90;;;;;;5064395;28;20415;-72
2020/12/21 07:49:59;;;;;;;37.00;10.50;;;5.10;99.90;;;;;;5060767;28;20500;-71
2020/12/21 07:52:27;;;;;;;31.17;11.20;;;5.10;99.90;;;;;;5064933;28;20118;-71
2020/12/21 07:54:53;;;;;;;30.70;10.48;;;5.10;99.90;;;;;;5057838;28;20067;-72
2020/12/21 07:57:20;;;;;;;26.50;9.50;;;5.10;99.90;;;;;;5043679;28;20074;-72
2020/12/21 07:59:56;;;;;;;24.90;8.93;;;5.20;99.90;;;;;;5038253;28;20095;-72
2020/12/21 08:02:25;;;;;;;31.15;10.75;;;5.30;99.90;;;;;;5072777;28;20052;-72
2020/12/21 08:04:52;;;;;;;25.50;10.32;;;5.30;99.90;;;;;;5065680;28;20033;-72
2020/12/21 08:07:25;;;;;;;27.08;9.45;;;5.40;99.90;;;;;;5052511;28;20051;-72
2020/12/21 08:09:52;;;;;;;29.20;8.88;;;5.50;99.90;;;;;;5053490;28;20044;-71
2020/12/21 08:12:18;;;;;;;35.08;10.65;;;5.50;99.90;;;;;;5052240;28;20033;-72
2020/12/21 08:14:45;;;;;;;25.20;8.90;;;5.60;99.90;;;;;;5061470;28;20036;-71
2020/12/21 08:17:17;;;;;;;30.63;10.15;;;5.50;99.90;;;;;;5066356;28;20036;-71
2020/12/21 08:19:51;;;;;;;31.50;10.85;;;5.50;99.90;;;;;;5070276;28;20040;-71
2020/12/21 08:22:21;;;;;;;31.40;10.90;;;5.50;99.90;;;;;;5068591;28;20060;-72
2020/12/21 08:25:09;;;;;;;41.25;13.63;;;5.50;99.90;;;;;;5069984;28;20110;-71
2020/12/21 08:27:50;;;;;;;38.30;13.52;;;5.50;99.90;;;;;;5081927;28;20045;-71
2020/12/21 08:30:21;;;;;;;28.23;9.85;;;5.60;99.90;;;;;;5058727;28;20102;-71
2020/12/21 08:32:50;;;;;;;36.17;13.18;;;5.60;99.90;;;;;;5068444;28;20040;-72
2020/12/21 08:35:27;;;;;;;39.85;15.43;;;5.60;99.90;;;;;;5054735;28;20037;-66
2020/12/21 08:38:11;;;;;;;38.35;12.65;;;5.70;99.90;;;;;;5067792;28;20119;-66
2020/12/21 08:40:38;;;;;;;37.72;12.98;;;5.70;99.90;;;;;;5065287;28;20679;-66
2020/12/21 08:43:05;;;;;;;46.75;16.02;;;5.80;99.90;;;;;;5058389;28;20158;-67
2020/12/21 08:45:37;;;;;;;31.33;10.95;;;5.80;99.90;;;;;;5063397;28;20408;-66
2020/12/21 08:48:04;;;;;;;28.80;10.35;;;5.80;99.90;;;;;;5067624;28;20492;-67
2020/12/21 08:50:31;;;;;;;30.27;10.68;;;5.80;99.90;;;;;;5063228;28;20049;-65
2020/12/21 08:52:58;;;;;;;32.63;11.27;;;5.80;99.90;;;;;;5048723;28;20052;-67
2020/12/21 08:55:24;;;;;;;29.95;9.70;;;5.80;99.90;;;;;;5061205;28;20455;-67
2020/12/21 08:57:51;;;;;;;29.48;9.35;;;5.80;99.90;;;;;;5061666;28;20529;-67
2020/12/21 09:00:17;;;;;;;27.23;9.43;;;5.90;99.90;;;;;;5065264;28;20438;-66
2020/12/21 09:02:44;;;;;;;29.77;9.75;;;5.90;99.90;;;;;;5064260;28;20046;-67
2020/12/21 09:05:10;;;;;;;29.55;10.77;;;5.90;99.90;;;;;;5065456;28;20044;-67
2020/12/21 09:07:37;;;;;;;28.73;9.88;;;6.00;99.90;;;;;;5060454;28;20106;-67
2020/12/21 09:10:05;;;;;;;30.40;10.13;;;5.90;99.90;;;;;;5062007;28;20052;-67
2020/12/21 09:12:33;;;;;;;23.98;8.75;;;5.90;99.90;;;;;;5057313;28;20045;-67
2020/12/21 09:15:00;;;;;;;27.58;9.02;;;5.80;99.90;;;;;;5059034;28;20049;-67
2020/12/21 09:17:26;;;;;;;36.70;12.35;;;5.80;99.90;;;;;;5065242;28;20052;-66
2020/12/21 09:19:53;;;;;;;38.10;14.27;;;5.90;99.90;;;;;;5057201;28;20045;-67
2020/12/21 09:22:24;;;;;;;41.17;14.95;;;5.90;99.90;;;;;;5062412;28;20095;-67
2020/12/21 09:24:50;;;;;;;28.08;10.73;;;5.90;99.90;;;;;;5057338;28;20048;-67
2020/12/21 09:27:17;;;;;;;26.15;10.38;;;6.00;99.90;;;;;;5059767;28;20041;-67
2020/12/21 09:29:43;;;;;;;31.25;11.25;;;6.00;99.90;;;;;;5065811;28;20047;-66
2020/12/21 09:32:10;;;;;;;31.45;10.45;;;6.00;99.90;;;;;;5063276;28;20040;-68
2020/12/21 09:34:37;;;;;;;29.73;11.05;;;6.10;99.90;;;;;;5057309;28;20517;-67
2020/12/21 09:37:04;;;;;;;29.40;9.95;;;6.10;99.90;;;;;;5062939;28;20051;-68
2020/12/21 09:39:31;;;;;;;27.42;9.45;;;6.10;99.90;;;;;;5060999;28;20091;-68
2020/12/21 09:41:57;;;;;;;25.50;10.27;;;6.10;99.90;;;;;;5054074;28;20048;-67
2020/12/21 09:44:24;;;;;;;27.92;9.20;;;6.10;99.90;;;;;;5054664;28;20071;-68
2020/12/21 09:46:51;;;;;;;27.60;8.95;;;6.10;99.90;;;;;;5040885;28;20144;-67
2020/12/21 09:49:18;;;;;;;32.97;10.18;;;6.10;99.90;;;;;;5054407;28;20037;-67
2020/12/21 09:51:52;;;;;;;28.08;9.18;;;6.20;99.90;;;;;;5058390;28;20036;-67
2020/12/21 09:54:19;;;;;;;28.95;9.15;;;6.10;99.90;;;;;;5049925;28;20055;-67
2020/12/21 09:56:49;;;;;;;27.20;9.50;;;6.20;99.90;;;;;;5062577;28;20040;-67
2020/12/21 09:59:16;;;;;;;33.92;11.70;;;6.10;99.90;;;;;;5065234;28;20438;-67
2020/12/21 10:01:43;;;;;;;22.42;8.38;;;6.10;99.90;;;;;;5044885;28;20067;-67
2020/12/21 10:04:10;;;;;;;26.90;9.38;;;6.20;99.90;;;;;;5053862;28;20045;-66
2020/12/21 10:06:36;;;;;;;28.20;9.07;;;6.20;99.90;;;;;;5056400;28;20045;-67
2020/12/21 10:09:04;;;;;;;30.27;9.30;;;6.20;99.90;;;;;;5037534;28;20057;-67
2020/12/21 10:11:31;;;;;;;28.48;9.45;;;6.10;99.90;;;;;;5044371;28;20108;-67
2020/12/21 10:13:57;;;;;;;25.00;8.32;;;6.10;99.90;;;;;;5058530;28;20049;-68
2020/12/21 10:16:24;;;;;;;25.20;8.05;;;6.10;99.90;;;;;;5051104;28;20044;-66
2020/12/21 10:18:50;;;;;;;26.73;8.07;;;6.20;99.90;;;;;;5061105;28;20044;-65
2020/12/21 10:21:17;;;;;;;21.73;7.85;;;6.20;99.90;;;;;;5058597;28;20392;-66
2020/12/21 10:23:43;;;;;;;24.85;7.22;;;6.20;99.90;;;;;;5055630;28;20495;-66
2020/12/21 10:26:10;;;;;;;23.13;7.28;;;6.20;99.90;;;;;;5057118;28;20041;-66
2020/12/21 10:28:36;;;;;;;21.92;7.15;;;6.20;99.90;;;;;;5055308;28;20128;-67
2020/12/21 10:31:03;;;;;;;19.00;6.53;;;6.20;99.90;;;;;;5056437;28;20068;-67
2020/12/21 10:33:30;;;;;;;23.15;7.80;;;6.30;99.90;;;;;;5056919;28;20838;-67
2020/12/21 10:35:56;;;;;;;17.98;6.60;;;6.30;99.90;;;;;;5056292;28;20053;-67
2020/12/21 10:38:23;;;;;;;25.55;8.80;;;6.20;99.90;;;;;;5063525;28;20041;-67
2020/12/21 10:40:50;;;;;;;25.80;8.50;;;6.30;99.90;;;;;;5060351;28;20921;-67
2020/12/21 10:43:16;;;;;;;22.23;7.22;;;6.30;99.90;;;;;;5065737;28;20041;-66
2020/12/21 10:45:43;;;;;;;22.02;6.95;;;6.20;99.90;;;;;;5069099;28;20052;-66
2020/12/21 10:48:10;;;;;;;23.73;8.35;;;6.20;99.90;;;;;;5063984;28;20133;-66
2020/12/21 10:50:37;;;;;;;19.60;6.15;;;6.10;99.90;;;;;;5046319;28;20052;-66
2020/12/21 10:53:04;;;;;;;21.13;8.48;;;6.20;99.90;;;;;;5059017;28;20044;-66
2020/12/21 10:55:31;;;;;;;27.40;9.13;;;6.20;99.90;;;;;;5052667;28;20037;-66
2020/12/21 10:57:57;;;;;;;22.25;7.47;;;6.10;99.90;;;;;;5066191;28;20040;-66
2020/12/21 11:00:24;;;;;;;22.98;8.38;;;6.20;99.90;;;;;;5061750;28;20136;-66
2020/12/21 11:02:51;;;;;;;26.83;8.82;;;6.20;99.90;;;;;;5064260;28;20119;-66
2020/12/21 11:05:18;;;;;;;23.83;8.15;;;6.30;99.90;;;;;;5051521;28;20396;-67
2020/12/21 11:07:44;;;;;;;27.70;10.25;;;6.30;99.90;;;;;;5071796;28;20144;-67
2020/12/21 11:10:30;;;;;;;31.42;12.77;;;6.40;99.90;;;;;;5064919;28;20053;-66
2020/12/21 11:12:59;;;;;;;30.63;9.55;;;6.30;99.90;;;;;;5069687;28;20044;-66
2020/12/21 11:15:25;;;;;;;30.85;10.90;;;6.30;99.90;;;;;;5048410;28;20042;-66
2020/12/21 11:17:52;;;;;;;25.52;10.05;;;6.30;99.90;;;;;;5048835;28;20587;-66
2020/12/21 11:20:19;;;;;;;38.72;12.90;;;6.40;99.90;;;;;;5045960;28;20139;-66
2020/12/21 11:22:46;;;;;;;27.15;9.38;;;6.40;99.90;;;;;;5067160;28;20064;-65
2020/12/21 11:25:13;;;;;;;21.38;7.10;;;6.40;99.90;;;;;;5070516;28;20037;-66
2020/12/21 11:27:40;;;;;;;25.85;8.63;;;6.40;99.90;;;;;;5060982;28;20041;-66
2020/12/21 11:30:06;;;;;;;22.17;8.13;;;6.40;99.90;;;;;;5049614;28;20511;-65
2020/12/21 11:32:33;;;;;;;24.25;7.63;;;6.50;99.90;;;;;;5059679;28;20037;-65
2020/12/21 11:35:00;;;;;;;20.58;7.25;;;6.40;99.90;;;;;;5047018;28;20745;-65
2020/12/21 11:37:26;;;;;;;18.23;7.45;;;6.40;99.90;;;;;;5062020;28;20082;-65
2020/12/21 11:39:53;;;;;;;23.15;7.47;;;6.40;99.90;;;;;;5065901;28;20404;-65
2020/12/21 11:42:20;;;;;;;21.25;8.65;;;6.40;99.90;;;;;;5066296;28;20049;-65
2020/12/21 11:44:47;;;;;;;17.67;5.93;;;6.50;99.90;;;;;;5061868;28;20075;-66
2020/12/21 11:47:14;;;;;;;24.67;8.45;;;6.60;99.50;;;;;;5033827;28;20044;-66
2020/12/21 11:49:42;;;;;;;16.23;5.47;;;6.60;99.60;;;;;;5043413;28;20538;-66
2020/12/21 11:52:09;;;;;;;14.18;5.38;;;6.60;98.80;;;;;;5053966;28;20431;-66
2020/12/21 11:54:35;;;;;;;21.13;8.13;;;6.60;98.00;;;;;;5048111;28;20076;-66
2020/12/21 11:57:02;;;;;;;17.27;6.63;;;6.50;98.30;;;;;;5053540;28;20041;-67
2020/12/21 11:59:29;;;;;;;20.48;6.88;;;6.40;98.60;;;;;;5040560;28;20139;-67
2020/12/21 12:01:57;;;;;;;18.08;7.20;;;6.40;98.80;;;;;;5044552;28;20526;-66
2020/12/21 12:04:24;;;;;;;18.67;7.10;;;6.40;99.30;;;;;;5056663;28;20051;-67
2020/12/21 12:06:52;;;;;;;19.23;6.78;;;6.40;99.50;;;;;;5061631;28;20045;-66
2020/12/21 12:09:25;;;;;;;17.48;7.38;;;6.50;99.60;;;;;;5059139;28;20037;-66
2020/12/21 12:11:56;;;;;;;19.35;6.80;;;6.50;99.90;;;;;;5038876;28;20036;-66
2020/12/21 12:14:23;;;;;;;21.10;7.82;;;6.50;99.30;;;;;;5056016;28;20055;-66
2020/12/21 12:16:50;;;;;;;18.35;6.43;;;6.40;99.90;;;;;;5053068;28;20045;-67
2020/12/21 12:19:22;;;;;;;15.63;6.05;;;6.50;99.90;;;;;;5058191;28;20040;-67
2020/12/21 12:21:52;;;;;;;20.25;7.65;;;6.60;99.10;;;;;;5056189;28;20618;-66
2020/12/21 12:24:19;;;;;;;18.00;6.07;;;6.50;99.50;;;;;;5039572;28;20040;-67
2020/12/21 12:26:45;;;;;;;21.30;6.50;;;6.60;98.90;;;;;;5060980;28;20048;-67
2020/12/21 12:29:12;;;;;;;18.10;6.03;;;6.60;99.50;;;;;;5054674;28;20044;-67
2020/12/21 12:31:39;;;;;;;20.42;6.13;;;6.50;99.60;;;;;;5058198;28;20043;-67
2020/12/21 12:34:06;;;;;;;15.65;6.28;;;6.50;98.80;;;;;;5044690;28;20579;-67
2020/12/21 12:36:33;;;;;;;18.48;6.22;;;6.50;99.60;;;;;;5064508;28;20487;-67
2020/12/21 12:38:59;;;;;;;16.52;6.43;;;6.50;99.20;;;;;;5061473;28;20690;-67
2020/12/21 12:41:26;;;;;;;15.40;6.20;;;6.50;98.80;;;;;;5061880;28;20044;-67
2020/12/21 12:43:52;;;;;;;20.08;6.28;;;6.40;99.30;;;;;;5050810;28;20044;-67